sensor_id;sensor_type;location;lat;lon;timestamp;pressure;altitude;pressure_sealevel;temperature;humidity
48892;BME280;50130;52.150;5.236;2023-02-02T00:00:21;101903.0;;;9.4;95.4
48892;BME280;50130;52.150;5.236;2023-02-02T00:01:59;101911.0;;;9.31;95.57
48892;BME280;50130;52.150;5.236;2023-02-02T00:03:36;101906.0;;;9.31;95.7
48892;BME280;50130;52.150;5.236;2023-02-02T00:06:50;101909.0;;;9.33;95.75
48892;BME280;50130;52.150;5.236;2023-02-02T00:08:27;101910.0;;;9.47;95.41
48892;BME280;50130;52.150;5.236;2023-02-02T00:10:04;101912.0;;;9.38;95.37
48892;BME280;50130;52.150;5.236;2023-02-02T00:13:20;101902.0;;;9.35;95.81
48892;BME280;50130;52.150;5.236;2023-02-02T00:14:55;101910.0;;;9.32;96.13
48892;BME280;50130;52.150;5.236;2023-02-02T00:16:36;101921.0;;;9.43;95.94
48892;BME280;50130;52.150;5.236;2023-02-02T00:18:13;101925.0;;;9.14;97.05
48892;BME280;50130;52.150;5.236;2023-02-02T00:21:25;101927.0;;;9.18;97.51
48892;BME280;50130;52.150;5.236;2023-02-02T00:23:03;101924.0;;;9.31;96.98
48892;BME280;50130;52.150;5.236;2023-02-02T00:24:39;101916.0;;;9.33;96.93
48892;BME280;50130;52.150;5.236;2023-02-02T00:27:53;101916.0;;;9.25;96.84
48892;BME280;50130;52.150;5.236;2023-02-02T00:29:30;101913.0;;;9.24;97.49
48892;BME280;50130;52.150;5.236;2023-02-02T00:31:06;101913.0;;;9.28;97.59
48892;BME280;50130;52.150;5.236;2023-02-02T00:34:23;101914.0;;;9.31;97.55
48892;BME280;50130;52.150;5.236;2023-02-02T00:36:01;101913.0;;;9.31;97.35
48892;BME280;50130;52.150;5.236;2023-02-02T00:37:38;101917.0;;;9.24;97.95
48892;BME280;50130;52.150;5.236;2023-02-02T00:39:16;101916.0;;;9.39;97.16
48892;BME280;50130;52.150;5.236;2023-02-02T00:42:29;101921.0;;;9.26;97.42
48892;BME280;50130;52.150;5.236;2023-02-02T00:45:24;101923.0;;;9.21;98.0
48892;BME280;50130;52.150;5.236;2023-02-02T00:47:01;101923.0;;;9.03;98.43
48892;BME280;50130;52.150;5.236;2023-02-02T00:48:37;101924.0;;;9.17;98.19
48892;BME280;50130;52.150;5.236;2023-02-02T00:50:16;101924.0;;;9.1;98.12
48892;BME280;50130;52.150;5.236;2023-02-02T00:51:54;101917.0;;;9.17;97.93
48892;BME280;50130;52.150;5.236;2023-02-02T00:55:09;101930.0;;;9.14;98.22
48892;BME280;50130;52.150;5.236;2023-02-02T00:56:45;101926.0;;;9.19;97.7
48892;BME280;50130;52.150;5.236;2023-02-02T00:58:22;101927.0;;;9.03;97.12
48892;BME280;50130;52.150;5.236;2023-02-02T01:01:35;101925.0;;;8.93;97.59
48892;BME280;50130;52.150;5.236;2023-02-02T01:03:12;101931.0;;;9.06;97.17
48892;BME280;50130;52.150;5.236;2023-02-02T01:04:48;101926.0;;;9.02;97.12
48892;BME280;50130;52.150;5.236;2023-02-02T01:06:24;101930.0;;;8.94;96.83
48892;BME280;50130;52.150;5.236;2023-02-02T01:09:37;101928.0;;;8.92;96.76
48892;BME280;50130;52.150;5.236;2023-02-02T01:11:13;101930.0;;;8.81;96.71
48892;BME280;50130;52.150;5.236;2023-02-02T01:12:50;101935.0;;;8.77;97.33
48892;BME280;50130;52.150;5.236;2023-02-02T01:16:04;101934.0;;;8.85;97.32
48892;BME280;50130;52.150;5.236;2023-02-02T01:17:41;101939.0;;;8.78;97.71
48892;BME280;50130;52.150;5.236;2023-02-02T01:19:18;101934.0;;;8.89;97.67
48892;BME280;50130;52.150;5.236;2023-02-02T01:20:57;101931.0;;;8.74;98.07
48892;BME280;50130;52.150;5.236;2023-02-02T01:24:10;101936.0;;;8.78;97.72
48892;BME280;50130;52.150;5.236;2023-02-02T01:25:52;101932.0;;;8.91;97.19
48892;BME280;50130;52.150;5.236;2023-02-02T01:27:28;101936.0;;;8.73;97.4
48892;BME280;50130;52.150;5.236;2023-02-02T01:30:40;101938.0;;;8.74;97.37
48892;BME280;50130;52.150;5.236;2023-02-02T01:32:17;101939.0;;;8.65;97.76
48892;BME280;50130;52.150;5.236;2023-02-02T01:33:53;101936.0;;;8.8;97.35
48892;BME280;50130;52.150;5.236;2023-02-02T01:37:05;101932.0;;;8.76;97.01
48892;BME280;50130;52.150;5.236;2023-02-02T01:38:41;101931.0;;;8.72;97.41
48892;BME280;50130;52.150;5.236;2023-02-02T01:40:18;101932.0;;;8.76;97.31
48892;BME280;50130;52.150;5.236;2023-02-02T01:41:54;101932.0;;;8.71;98.1
48892;BME280;50130;52.150;5.236;2023-02-02T01:45:28;101923.0;;;8.65;98.32
48892;BME280;50130;52.150;5.236;2023-02-02T01:47:05;101925.0;;;8.61;98.23
48892;BME280;50130;52.150;5.236;2023-02-02T01:48:45;101933.0;;;8.73;97.76
48892;BME280;50130;52.150;5.236;2023-02-02T01:50:28;101939.0;;;8.56;98.22
48892;BME280;50130;52.150;5.236;2023-02-02T01:53:50;101935.0;;;8.64;98.29
48892;BME280;50130;52.150;5.236;2023-02-02T01:55:30;101940.0;;;8.69;97.93
48892;BME280;50130;52.150;5.236;2023-02-02T01:57:11;101940.0;;;8.8;97.91
48892;BME280;50130;52.150;5.236;2023-02-02T01:58:50;101942.0;;;8.68;97.81
48892;BME280;50130;52.150;5.236;2023-02-02T02:02:04;101940.0;;;8.63;98.41
48892;BME280;50130;52.150;5.236;2023-02-02T02:03:41;101941.0;;;8.6;98.38
48892;BME280;50130;52.150;5.236;2023-02-02T02:05:23;101938.0;;;8.65;98.28
48892;BME280;50130;52.150;5.236;2023-02-02T02:07:04;101936.0;;;8.58;98.6
48892;BME280;50130;52.150;5.236;2023-02-02T02:10:36;101939.0;;;8.52;98.88
48892;BME280;50130;52.150;5.236;2023-02-02T02:12:14;101935.0;;;8.55;98.94
48892;BME280;50130;52.150;5.236;2023-02-02T02:18:09;101928.0;;;8.76;98.17
48892;BME280;50130;52.150;5.236;2023-02-02T02:29:11;101925.0;;;8.65;99.16
48892;BME280;50130;52.150;5.236;2023-02-02T02:32:01;101922.0;;;8.69;98.87
48892;BME280;50130;52.150;5.236;2023-02-02T02:34:34;101917.0;;;8.57;99.62
48892;BME280;50130;52.150;5.236;2023-02-02T02:36:25;101920.0;;;8.53;100.0
48892;BME280;50130;52.150;5.236;2023-02-02T02:39:54;101915.0;;;8.72;99.78
48892;BME280;50130;52.150;5.236;2023-02-02T02:41:38;101912.0;;;8.72;99.54
48892;BME280;50130;52.150;5.236;2023-02-02T02:43:21;101909.0;;;8.8;99.54
48892;BME280;50130;52.150;5.236;2023-02-02T02:45:03;101908.0;;;8.91;98.84
48892;BME280;50130;52.150;5.236;2023-02-02T02:48:18;101897.0;;;8.84;99.1
48892;BME280;50130;52.150;5.236;2023-02-02T02:49:56;101889.0;;;8.85;99.14
48892;BME280;50130;52.150;5.236;2023-02-02T02:51:49;101889.0;;;8.96;98.53
48892;BME280;50130;52.150;5.236;2023-02-02T02:53:25;101888.0;;;8.78;98.96
48892;BME280;50130;52.150;5.236;2023-02-02T02:56:48;101894.0;;;8.8;98.88
48892;BME280;50130;52.150;5.236;2023-02-02T02:59:36;101899.0;;;8.85;98.34
48892;BME280;50130;52.150;5.236;2023-02-02T03:01:28;101898.0;;;8.71;98.74
48892;BME280;50130;52.150;5.236;2023-02-02T03:05:06;101900.0;;;8.73;98.67
48892;BME280;50130;52.150;5.236;2023-02-02T03:06:52;101898.0;;;8.76;98.93
48892;BME280;50130;52.150;5.236;2023-02-02T03:08:32;101900.0;;;8.73;98.36
48892;BME280;50130;52.150;5.236;2023-02-02T03:10:14;101905.0;;;8.77;98.17
48892;BME280;50130;52.150;5.236;2023-02-02T03:11:54;101917.0;;;8.74;98.49
48892;BME280;50130;52.150;5.236;2023-02-02T03:15:08;101918.0;;;8.75;98.34
48892;BME280;50130;52.150;5.236;2023-02-02T03:16:45;101926.0;;;8.78;98.22
48892;BME280;50130;52.150;5.236;2023-02-02T03:18:23;101925.0;;;8.88;97.49
48892;BME280;50130;52.150;5.236;2023-02-02T03:21:39;101921.0;;;8.98;97.56
48892;BME280;50130;52.150;5.236;2023-02-02T03:23:16;101926.0;;;8.91;97.42
48892;BME280;50130;52.150;5.236;2023-02-02T03:24:52;101930.0;;;8.88;97.87
48892;BME280;50130;52.150;5.236;2023-02-02T03:26:29;101935.0;;;8.91;97.73
48892;BME280;50130;52.150;5.236;2023-02-02T03:29:42;101930.0;;;8.97;97.38
48892;BME280;50130;52.150;5.236;2023-02-02T03:31:18;101937.0;;;9.11;96.86
48892;BME280;50130;52.150;5.236;2023-02-02T03:32:55;101935.0;;;8.97;96.59
48892;BME280;50130;52.150;5.236;2023-02-02T03:36:08;101938.0;;;8.99;96.61
48892;BME280;50130;52.150;5.236;2023-02-02T03:37:45;101937.0;;;8.94;96.64
48892;BME280;50130;52.150;5.236;2023-02-02T03:39:22;101951.0;;;8.9;97.14
48892;BME280;50130;52.150;5.236;2023-02-02T03:42:34;101940.0;;;8.91;96.83
48892;BME280;50130;52.150;5.236;2023-02-02T03:44:10;101928.0;;;8.96;96.92
48892;BME280;50130;52.150;5.236;2023-02-02T03:45:46;101930.0;;;9.0;96.45
48892;BME280;50130;52.150;5.236;2023-02-02T03:47:22;101935.0;;;9.11;96.06
48892;BME280;50130;52.150;5.236;2023-02-02T03:50:36;101931.0;;;9.14;95.97
48892;BME280;50130;52.150;5.236;2023-02-02T03:52:12;101934.0;;;8.98;96.64
48892;BME280;50130;52.150;5.236;2023-02-02T03:53:48;101944.0;;;9.07;96.27
48892;BME280;50130;52.150;5.236;2023-02-02T03:57:01;101932.0;;;9.1;96.05
48892;BME280;50130;52.150;5.236;2023-02-02T03:58:37;101932.0;;;9.06;95.95
48892;BME280;50130;52.150;5.236;2023-02-02T04:00:13;101934.0;;;9.02;95.68
48892;BME280;50130;52.150;5.236;2023-02-02T04:03:26;101933.0;;;9.13;95.56
48892;BME280;50130;52.150;5.236;2023-02-02T04:05:03;101924.0;;;9.19;95.43
48892;BME280;50130;52.150;5.236;2023-02-02T04:06:40;101926.0;;;9.14;95.14
48892;BME280;50130;52.150;5.236;2023-02-02T04:09:52;101910.0;;;9.23;95.07
48892;BME280;50130;52.150;5.236;2023-02-02T04:11:28;101915.0;;;9.23;95.31
48892;BME280;50130;52.150;5.236;2023-02-02T04:13:04;101932.0;;;9.17;94.9
48892;BME280;50130;52.150;5.236;2023-02-02T04:14:40;101927.0;;;9.13;95.18
48892;BME280;50130;52.150;5.236;2023-02-02T04:17:52;101933.0;;;9.17;94.62
48892;BME280;50130;52.150;5.236;2023-02-02T04:19:28;101921.0;;;9.26;94.18
48892;BME280;50130;52.150;5.236;2023-02-02T04:21:06;101915.0;;;9.38;94.05
48892;BME280;50130;52.150;5.236;2023-02-02T04:24:20;101912.0;;;9.4;94.0
48892;BME280;50130;52.150;5.236;2023-02-02T04:25:57;101910.0;;;9.28;93.77
48892;BME280;50130;52.150;5.236;2023-02-02T04:27:34;101911.0;;;9.31;94.15
48892;BME280;50130;52.150;5.236;2023-02-02T04:30:47;101911.0;;;9.19;95.29
48892;BME280;50130;52.150;5.236;2023-02-02T04:32:23;101926.0;;;9.13;95.08
48892;BME280;50130;52.150;5.236;2023-02-02T04:33:59;101919.0;;;9.11;94.73
48892;BME280;50130;52.150;5.236;2023-02-02T04:35:36;101925.0;;;9.15;94.66
48892;BME280;50130;52.150;5.236;2023-02-02T04:38:49;101923.0;;;9.23;94.34
48892;BME280;50130;52.150;5.236;2023-02-02T04:40:25;101921.0;;;9.32;93.68
48892;BME280;50130;52.150;5.236;2023-02-02T04:42:02;101922.0;;;9.26;94.05
48892;BME280;50130;52.150;5.236;2023-02-02T04:45:15;101919.0;;;9.26;94.14
48892;BME280;50130;52.150;5.236;2023-02-02T04:46:52;101930.0;;;9.3;93.7
48892;BME280;50130;52.150;5.236;2023-02-02T04:48:28;101935.0;;;9.31;93.74
48892;BME280;50130;52.150;5.236;2023-02-02T04:51:43;101930.0;;;9.39;93.29
48892;BME280;50130;52.150;5.236;2023-02-02T04:53:19;101927.0;;;9.28;93.82
48892;BME280;50130;52.150;5.236;2023-02-02T04:54:55;101935.0;;;9.35;93.76
48892;BME280;50130;52.150;5.236;2023-02-02T04:56:32;101932.0;;;9.39;93.34
48892;BME280;50130;52.150;5.236;2023-02-02T04:59:45;101939.0;;;9.36;93.13
48892;BME280;50130;52.150;5.236;2023-02-02T05:01:21;101936.0;;;9.34;93.37
48892;BME280;50130;52.150;5.236;2023-02-02T05:02:59;101939.0;;;9.31;93.49
48892;BME280;50130;52.150;5.236;2023-02-02T05:06:12;101945.0;;;9.34;93.28
48892;BME280;50130;52.150;5.236;2023-02-02T05:07:48;101952.0;;;9.38;93.0
48892;BME280;50130;52.150;5.236;2023-02-02T05:09:25;101963.0;;;9.33;93.67
48892;BME280;50130;52.150;5.236;2023-02-02T05:12:42;101956.0;;;9.51;92.95
48892;BME280;50130;52.150;5.236;2023-02-02T05:14:19;101963.0;;;9.49;92.77
48892;BME280;50130;52.150;5.236;2023-02-02T05:15:55;101958.0;;;9.48;93.05
48892;BME280;50130;52.150;5.236;2023-02-02T05:17:32;101956.0;;;9.51;92.78
48892;BME280;50130;52.150;5.236;2023-02-02T05:20:48;101945.0;;;9.4;92.93
48892;BME280;50130;52.150;5.236;2023-02-02T05:22:26;101942.0;;;9.38;93.29
48892;BME280;50130;52.150;5.236;2023-02-02T05:24:03;101948.0;;;9.4;93.34
48892;BME280;50130;52.150;5.236;2023-02-02T05:27:15;101950.0;;;9.36;93.16
48892;BME280;50130;52.150;5.236;2023-02-02T05:28:51;101946.0;;;9.35;93.29
48892;BME280;50130;52.150;5.236;2023-02-02T05:30:28;101947.0;;;9.51;92.8
48892;BME280;50130;52.150;5.236;2023-02-02T05:32:04;101957.0;;;9.53;92.54
48892;BME280;50130;52.150;5.236;2023-02-02T05:35:17;101950.0;;;9.57;92.3
48892;BME280;50130;52.150;5.236;2023-02-02T05:36:53;101948.0;;;9.43;92.84
48892;BME280;50130;52.150;5.236;2023-02-02T05:38:30;101952.0;;;9.56;92.97
48892;BME280;50130;52.150;5.236;2023-02-02T05:41:45;101956.0;;;9.57;92.84
48892;BME280;50130;52.150;5.236;2023-02-02T05:43:24;101953.0;;;9.48;92.91
48892;BME280;50130;52.150;5.236;2023-02-02T05:45:00;101951.0;;;9.56;92.76
48892;BME280;50130;52.150;5.236;2023-02-02T05:46:37;101951.0;;;9.64;92.18
48892;BME280;50130;52.150;5.236;2023-02-02T05:49:49;101945.0;;;9.56;92.39
48892;BME280;50130;52.150;5.236;2023-02-02T05:51:28;101950.0;;;9.56;92.7
48892;BME280;50130;52.150;5.236;2023-02-02T05:53:07;101958.0;;;9.56;93.11
48892;BME280;50130;52.150;5.236;2023-02-02T05:56:20;101953.0;;;9.51;93.36
48892;BME280;50130;52.150;5.236;2023-02-02T05:57:56;101956.0;;;9.39;94.13
48892;BME280;50130;52.150;5.236;2023-02-02T05:59:31;101959.0;;;9.44;93.98
48892;BME280;50130;52.150;5.236;2023-02-02T06:02:44;101969.0;;;9.48;94.05
48892;BME280;50130;52.150;5.236;2023-02-02T06:04:21;101968.0;;;9.4;94.91
48892;BME280;50130;52.150;5.236;2023-02-02T06:05:57;101961.0;;;9.48;94.86
48892;BME280;50130;52.150;5.236;2023-02-02T06:07:34;101966.0;;;9.39;95.08
48892;BME280;50130;52.150;5.236;2023-02-02T06:10:46;101965.0;;;9.56;94.86
48892;BME280;50130;52.150;5.236;2023-02-02T06:12:22;101966.0;;;9.55;94.8
48892;BME280;50130;52.150;5.236;2023-02-02T06:13:59;101968.0;;;9.39;95.5
48892;BME280;50130;52.150;5.236;2023-02-02T06:17:12;101968.0;;;9.34;96.05
48892;BME280;50130;52.150;5.236;2023-02-02T06:18:49;101973.0;;;9.32;96.38
48892;BME280;50130;52.150;5.236;2023-02-02T06:20:26;101976.0;;;9.27;96.62
48892;BME280;50130;52.150;5.236;2023-02-02T06:23:44;101971.0;;;9.38;96.43
48892;BME280;50130;52.150;5.236;2023-02-02T06:25:21;101978.0;;;9.25;96.7
48892;BME280;50130;52.150;5.236;2023-02-02T06:26:58;101977.0;;;9.25;97.19
48892;BME280;50130;52.150;5.236;2023-02-02T06:28:34;101981.0;;;9.32;96.9
48892;BME280;50130;52.150;5.236;2023-02-02T06:31:49;101980.0;;;9.3;97.21
48892;BME280;50130;52.150;5.236;2023-02-02T06:33:25;101988.0;;;9.39;97.18
48892;BME280;50130;52.150;5.236;2023-02-02T06:35:02;101984.0;;;9.3;97.61
48892;BME280;50130;52.150;5.236;2023-02-02T06:38:18;101993.0;;;9.39;97.29
48892;BME280;50130;52.150;5.236;2023-02-02T06:39:54;101994.0;;;9.33;97.21
48892;BME280;50130;52.150;5.236;2023-02-02T06:41:31;101998.0;;;9.33;97.48
48892;BME280;50130;52.150;5.236;2023-02-02T06:43:08;101998.0;;;9.39;97.29
48892;BME280;50130;52.150;5.236;2023-02-02T06:46:20;102003.0;;;9.33;97.33
48892;BME280;50130;52.150;5.236;2023-02-02T06:47:58;102007.0;;;9.39;97.39
48892;BME280;50130;52.150;5.236;2023-02-02T06:49:35;102013.0;;;9.36;97.26
48892;BME280;50130;52.150;5.236;2023-02-02T06:52:50;102017.0;;;9.31;97.5
48892;BME280;50130;52.150;5.236;2023-02-02T06:54:26;102018.0;;;9.27;97.8
48892;BME280;50130;52.150;5.236;2023-02-02T06:56:05;102021.0;;;9.42;97.52
48892;BME280;50130;52.150;5.236;2023-02-02T06:59:19;102020.0;;;9.31;97.87
48892;BME280;50130;52.150;5.236;2023-02-02T07:01:00;102020.0;;;9.23;98.15
48892;BME280;50130;52.150;5.236;2023-02-02T07:02:37;102014.0;;;9.24;98.13
48892;BME280;50130;52.150;5.236;2023-02-02T07:04:15;102002.0;;;9.31;98.07
48892;BME280;50130;52.150;5.236;2023-02-02T07:07:30;102006.0;;;9.43;97.43
48892;BME280;50130;52.150;5.236;2023-02-02T07:09:07;102012.0;;;9.3;98.04
48892;BME280;50130;52.150;5.236;2023-02-02T07:10:44;102005.0;;;9.31;98.11
48892;BME280;50130;52.150;5.236;2023-02-02T07:13:56;102001.0;;;9.24;98.4
48892;BME280;50130;52.150;5.236;2023-02-02T07:15:33;102010.0;;;9.15;98.86
48892;BME280;50130;52.150;5.236;2023-02-02T07:17:09;102009.0;;;9.15;99.46
48892;BME280;50130;52.150;5.236;2023-02-02T07:18:47;102009.0;;;9.11;99.23
48892;BME280;50130;52.150;5.236;2023-02-02T07:21:59;102016.0;;;9.09;99.36
48892;BME280;50130;52.150;5.236;2023-02-02T07:23:35;102010.0;;;9.11;99.51
48892;BME280;50130;52.150;5.236;2023-02-02T07:25:11;102011.0;;;9.13;99.65
48892;BME280;50130;52.150;5.236;2023-02-02T07:28:24;102022.0;;;9.23;99.42
48892;BME280;50130;52.150;5.236;2023-02-02T07:30:03;102026.0;;;9.05;99.72
48892;BME280;50130;52.150;5.236;2023-02-02T07:31:40;102028.0;;;9.1;99.79
48892;BME280;50130;52.150;5.236;2023-02-02T07:34:52;102035.0;;;9.11;99.19
48892;BME280;50130;52.150;5.236;2023-02-02T07:36:29;102035.0;;;9.14;99.2
48892;BME280;50130;52.150;5.236;2023-02-02T07:38:04;102036.0;;;9.23;98.92
48892;BME280;50130;52.150;5.236;2023-02-02T07:39:42;102030.0;;;9.17;98.7
48892;BME280;50130;52.150;5.236;2023-02-02T07:42:59;102039.0;;;9.06;99.03
48892;BME280;50130;52.150;5.236;2023-02-02T07:44:36;102040.0;;;9.02;99.27
48892;BME280;50130;52.150;5.236;2023-02-02T07:46:13;102033.0;;;9.0;99.09
48892;BME280;50130;52.150;5.236;2023-02-02T07:49:32;102040.0;;;9.01;99.22
48892;BME280;50130;52.150;5.236;2023-02-02T07:51:10;102043.0;;;8.98;99.03
48892;BME280;50130;52.150;5.236;2023-02-02T07:52:49;102048.0;;;9.14;98.72
48892;BME280;50130;52.150;5.236;2023-02-02T07:54:26;102051.0;;;9.11;98.33
48892;BME280;50130;52.150;5.236;2023-02-02T07:57:44;102055.0;;;9.23;97.93
48892;BME280;50130;52.150;5.236;2023-02-02T07:59:21;102057.0;;;9.17;97.58
48892;BME280;50130;52.150;5.236;2023-02-02T08:00:59;102058.0;;;9.17;97.9
48892;BME280;50130;52.150;5.236;2023-02-02T08:02:36;102057.0;;;9.19;97.43
48892;BME280;50130;52.150;5.236;2023-02-02T08:05:50;102062.0;;;9.31;97.27
48892;BME280;50130;52.150;5.236;2023-02-02T08:07:26;102064.0;;;9.22;97.44
48892;BME280;50130;52.150;5.236;2023-02-02T08:09:04;102066.0;;;9.15;97.56
48892;BME280;50130;52.150;5.236;2023-02-02T08:12:23;102063.0;;;9.19;97.09
48892;BME280;50130;52.150;5.236;2023-02-02T08:14:02;102063.0;;;9.23;96.86
48892;BME280;50130;52.150;5.236;2023-02-02T08:15:39;102061.0;;;9.24;96.89
48892;BME280;50130;52.150;5.236;2023-02-02T08:17:16;102071.0;;;9.33;96.07
48892;BME280;50130;52.150;5.236;2023-02-02T08:20:29;102069.0;;;9.24;96.32
48892;BME280;50130;52.150;5.236;2023-02-02T08:22:05;102074.0;;;9.28;96.04
48892;BME280;50130;52.150;5.236;2023-02-02T08:23:41;102072.0;;;9.27;96.01
48892;BME280;50130;52.150;5.236;2023-02-02T08:26:55;102080.0;;;9.24;95.9
48892;BME280;50130;52.150;5.236;2023-02-02T08:28:31;102089.0;;;9.23;96.18
48892;BME280;50130;52.150;5.236;2023-02-02T08:30:09;102088.0;;;9.32;96.26
48892;BME280;50130;52.150;5.236;2023-02-02T08:33:22;102097.0;;;9.26;95.84
48892;BME280;50130;52.150;5.236;2023-02-02T08:34:58;102099.0;;;9.31;95.03
48892;BME280;50130;52.150;5.236;2023-02-02T08:36:35;102095.0;;;9.31;95.47
48892;BME280;50130;52.150;5.236;2023-02-02T08:38:10;102102.0;;;9.38;94.82
48892;BME280;50130;52.150;5.236;2023-02-02T08:41:23;102099.0;;;9.24;95.14
48892;BME280;50130;52.150;5.236;2023-02-02T08:42:59;102105.0;;;9.39;94.96
48892;BME280;50130;52.150;5.236;2023-02-02T08:44:36;102101.0;;;9.39;94.91
48892;BME280;50130;52.150;5.236;2023-02-02T08:47:52;102107.0;;;9.44;94.36
48892;BME280;50130;52.150;5.236;2023-02-02T08:49:29;102110.0;;;9.52;94.54
48892;BME280;50130;52.150;5.236;2023-02-02T08:51:06;102110.0;;;9.59;93.93
48892;BME280;50130;52.150;5.236;2023-02-02T08:54:19;102123.0;;;9.49;94.27
48892;BME280;50130;52.150;5.236;2023-02-02T08:55:57;102121.0;;;9.55;94.46
48892;BME280;50130;52.150;5.236;2023-02-02T08:57:35;102124.0;;;9.51;94.17
48892;BME280;50130;52.150;5.236;2023-02-02T08:59:11;102121.0;;;9.51;94.1
48892;BME280;50130;52.150;5.236;2023-02-02T09:02:23;102130.0;;;9.6;94.53
48892;BME280;50130;52.150;5.236;2023-02-02T09:04:01;102120.0;;;9.63;94.21
48892;BME280;50130;52.150;5.236;2023-02-02T09:05:39;102126.0;;;9.64;93.57
48892;BME280;50130;52.150;5.236;2023-02-02T09:08:51;102133.0;;;9.69;93.04
48892;BME280;50130;52.150;5.236;2023-02-02T09:10:27;102138.0;;;9.74;92.93
48892;BME280;50130;52.150;5.236;2023-02-02T09:12:10;102142.0;;;9.73;92.66
48892;BME280;50130;52.150;5.236;2023-02-02T09:13:51;102141.0;;;9.56;92.91
48892;BME280;50130;52.150;5.236;2023-02-02T09:17:05;102141.0;;;9.72;92.87
48892;BME280;50130;52.150;5.236;2023-02-02T09:18:42;102147.0;;;9.64;93.24
48892;BME280;50130;52.150;5.236;2023-02-02T09:20:19;102141.0;;;9.68;93.52
48892;BME280;50130;52.150;5.236;2023-02-02T09:23:33;102152.0;;;9.75;93.2
48892;BME280;50130;52.150;5.236;2023-02-02T09:25:13;102160.0;;;9.74;92.84
48892;BME280;50130;52.150;5.236;2023-02-02T09:26:50;102162.0;;;9.72;93.99
48892;BME280;50130;52.150;5.236;2023-02-02T09:28:26;102159.0;;;9.67;93.47
48892;BME280;50130;52.150;5.236;2023-02-02T09:31:40;102164.0;;;9.82;93.7
48892;BME280;50130;52.150;5.236;2023-02-02T09:33:16;102158.0;;;9.8;93.18
48892;BME280;50130;52.150;5.236;2023-02-02T09:34:52;102169.0;;;9.83;93.29
48892;BME280;50130;52.150;5.236;2023-02-02T09:38:06;102169.0;;;9.71;92.79
48892;BME280;50130;52.150;5.236;2023-02-02T09:39:42;102172.0;;;9.89;92.68
48892;BME280;50130;52.150;5.236;2023-02-02T09:41:29;102168.0;;;9.94;92.73
48892;BME280;50130;52.150;5.236;2023-02-02T09:43:39;102170.0;;;10.07;92.65
48892;BME280;50130;52.150;5.236;2023-02-02T09:45:25;102175.0;;;9.92;92.83
48892;BME280;50130;52.150;5.236;2023-02-02T09:48:56;102181.0;;;9.96;93.11
48892;BME280;50130;52.150;5.236;2023-02-02T09:50:42;102173.0;;;9.89;93.01
48892;BME280;50130;52.150;5.236;2023-02-02T09:52:25;102177.0;;;9.76;93.75
48892;BME280;50130;52.150;5.236;2023-02-02T09:54:09;102177.0;;;9.67;93.12
48892;BME280;50130;52.150;5.236;2023-02-02T09:55:54;102174.0;;;9.92;93.01
48892;BME280;50130;52.150;5.236;2023-02-02T09:59:22;102175.0;;;9.84;93.5
48892;BME280;50130;52.150;5.236;2023-02-02T10:01:05;102176.0;;;9.86;93.79
48892;BME280;50130;52.150;5.236;2023-02-02T10:02:44;102181.0;;;9.83;93.35
48892;BME280;50130;52.150;5.236;2023-02-02T10:04:28;102187.0;;;9.76;93.39
48892;BME280;50130;52.150;5.236;2023-02-02T10:06:16;102180.0;;;9.81;93.54
48892;BME280;50130;52.150;5.236;2023-02-02T10:09:46;102190.0;;;9.86;93.27
48892;BME280;50130;52.150;5.236;2023-02-02T10:11:30;102191.0;;;9.93;94.36
48892;BME280;50130;52.150;5.236;2023-02-02T10:13:13;102193.0;;;9.86;93.99
48892;BME280;50130;52.150;5.236;2023-02-02T10:14:55;102191.0;;;9.89;93.89
48892;BME280;50130;52.150;5.236;2023-02-02T10:16:36;102196.0;;;10.02;93.75
48892;BME280;50130;52.150;5.236;2023-02-02T10:20:04;102201.0;;;10.09;94.2
48892;BME280;50130;52.150;5.236;2023-02-02T10:21:59;102207.0;;;10.06;93.47
48892;BME280;50130;52.150;5.236;2023-02-02T10:23:38;102203.0;;;10.15;93.67
48892;BME280;50130;52.150;5.236;2023-02-02T10:25:18;102207.0;;;10.19;92.76
48892;BME280;50130;52.150;5.236;2023-02-02T10:27:01;102211.0;;;10.22;92.19
48892;BME280;50130;52.150;5.236;2023-02-02T10:30:38;102208.0;;;10.11;91.72
48892;BME280;50130;52.150;5.236;2023-02-02T10:32:24;102205.0;;;10.11;92.61
48892;BME280;50130;52.150;5.236;2023-02-02T10:34:10;102216.0;;;9.99;92.55
48892;BME280;50130;52.150;5.236;2023-02-02T10:35:53;102214.0;;;9.96;92.87
48892;BME280;50130;52.150;5.236;2023-02-02T10:37:37;102213.0;;;10.05;93.35
48892;BME280;50130;52.150;5.236;2023-02-02T10:41:16;102219.0;;;10.16;92.3
48892;BME280;50130;52.150;5.236;2023-02-02T10:44:08;102221.0;;;10.0;92.62
48892;BME280;50130;52.150;5.236;2023-02-02T10:45:51;102226.0;;;10.18;92.06
48892;BME280;50130;52.150;5.236;2023-02-02T10:49:15;102220.0;;;10.21;92.13
48892;BME280;50130;52.150;5.236;2023-02-02T10:51:01;102230.0;;;10.06;92.12
48892;BME280;50130;52.150;5.236;2023-02-02T10:52:44;102232.0;;;9.99;92.32
48892;BME280;50130;52.150;5.236;2023-02-02T10:54:36;102235.0;;;10.18;91.85
48892;BME280;50130;52.150;5.236;2023-02-02T10:56:39;102236.0;;;10.23;91.45
48892;BME280;50130;52.150;5.236;2023-02-02T10:58:22;102226.0;;;10.15;91.0
48892;BME280;50130;52.150;5.236;2023-02-02T11:01:49;102224.0;;;10.09;91.86
48892;BME280;50130;52.150;5.236;2023-02-02T11:03:27;102221.0;;;10.09;91.96
48892;BME280;50130;52.150;5.236;2023-02-02T11:06:54;102218.0;;;10.13;91.45
48892;BME280;50130;52.150;5.236;2023-02-02T11:08:41;102222.0;;;10.22;90.77
48892;BME280;50130;52.150;5.236;2023-02-02T11:10:17;102220.0;;;10.17;91.65
48892;BME280;50130;52.150;5.236;2023-02-02T11:11:56;102224.0;;;10.27;90.86
48892;BME280;50130;52.150;5.236;2023-02-02T11:13:41;102223.0;;;10.39;90.81
48892;BME280;50130;52.150;5.236;2023-02-02T11:15:24;102214.0;;;10.52;89.84
48892;BME280;50130;52.150;5.236;2023-02-02T11:18:42;102221.0;;;10.43;90.13
48892;BME280;50130;52.150;5.236;2023-02-02T11:20:23;102222.0;;;10.36;90.71
48892;BME280;50130;52.150;5.236;2023-02-02T11:22:23;102221.0;;;10.34;89.54
48892;BME280;50130;52.150;5.236;2023-02-02T11:24:01;102221.0;;;10.39;90.3
48892;BME280;50130;52.150;5.236;2023-02-02T11:25:41;102223.0;;;10.4;90.3
48892;BME280;50130;52.150;5.236;2023-02-02T11:28:57;102224.0;;;10.42;90.7
48892;BME280;50130;52.150;5.236;2023-02-02T11:30:34;102222.0;;;10.4;89.95
48892;BME280;50130;52.150;5.236;2023-02-02T11:32:26;102219.0;;;10.37;89.8